createdAt,value
2017-12-31T00:00:54.635Z,19.80
2017-12-31T00:01:59.587Z,19.80
2017-12-31T00:03:04.523Z,19.80
2017-12-31T00:04:09.447Z,19.80
2017-12-31T00:05:14.282Z,19.80
2017-12-31T00:06:19.113Z,19.80
2017-12-31T00:07:24.032Z,19.80
2017-12-31T00:08:28.963Z,19.80
2017-12-31T00:09:33.937Z,19.80
2017-12-31T00:10:38.919Z,19.80
2017-12-31T00:11:43.804Z,19.80
2017-12-31T00:12:48.793Z,19.80
2017-12-31T00:13:53.966Z,19.80
2017-12-31T00:14:59.095Z,19.80
2017-12-31T00:16:03.912Z,19.80
2017-12-31T00:17:08.715Z,19.80
2017-12-31T00:18:13.597Z,19.70
2017-12-31T00:19:19.463Z,19.80
2017-12-31T00:20:25.016Z,19.80
2017-12-31T00:22:58.157Z,19.80
2017-12-31T00:24:03.201Z,19.80
2017-12-31T00:25:08.352Z,19.70
2017-12-31T00:26:13.513Z,19.80
2017-12-31T00:27:18.976Z,19.80
2017-12-31T00:28:24.166Z,19.80
2017-12-31T00:29:29.614Z,19.80
2017-12-31T00:30:34.982Z,19.80
2017-12-31T00:31:40.437Z,19.80
2017-12-31T00:32:45.872Z,19.80
2017-12-31T00:33:51.221Z,19.80
2017-12-31T00:34:56.494Z,19.80
2017-12-31T00:36:02.040Z,19.80
2017-12-31T00:37:07.608Z,19.80
2017-12-31T00:38:12.804Z,19.80
2017-12-31T00:39:17.925Z,19.80
2017-12-31T00:40:23.045Z,19.70
2017-12-31T00:41:28.201Z,19.80
2017-12-31T00:42:33.564Z,19.80
2017-12-31T00:43:38.992Z,19.80
2017-12-31T00:44:44.618Z,19.80
2017-12-31T00:45:50.043Z,19.80
2017-12-31T00:46:56.140Z,19.80
2017-12-31T00:48:01.448Z,19.80
2017-12-31T00:49:06.880Z,19.80
2017-12-31T00:50:11.975Z,19.80
2017-12-31T00:51:17.259Z,19.80
2017-12-31T00:52:22.729Z,19.80
2017-12-31T00:53:28.066Z,19.80
2017-12-31T00:54:33.212Z,19.80
2017-12-31T00:55:38.406Z,19.80
2017-12-31T00:56:43.455Z,19.80
2017-12-31T00:57:48.594Z,19.80
2017-12-31T00:58:54.131Z,19.80
2017-12-31T00:59:59.067Z,19.80
2017-12-31T01:01:03.905Z,19.70
2017-12-31T01:02:08.676Z,19.70
2017-12-31T01:03:13.647Z,19.80
2017-12-31T01:04:18.388Z,19.80
2017-12-31T01:05:23.359Z,19.80
2017-12-31T01:06:28.335Z,19.70
2017-12-31T01:07:33.239Z,19.80
2017-12-31T01:08:38.119Z,19.80
2017-12-31T01:09:43.002Z,19.80
2017-12-31T01:10:47.983Z,19.80
2017-12-31T01:11:52.918Z,19.80
2017-12-31T01:12:57.865Z,19.70
2017-12-31T01:14:02.792Z,19.70
2017-12-31T01:15:07.672Z,19.80
2017-12-31T01:16:12.630Z,19.70
2017-12-31T01:17:18.438Z,19.70
2017-12-31T01:18:23.386Z,19.80
2017-12-31T01:19:28.154Z,19.80
2017-12-31T01:20:33.018Z,19.80
2017-12-31T01:21:38.348Z,19.80
2017-12-31T01:22:43.732Z,19.80
2017-12-31T01:23:48.592Z,19.80
2017-12-31T01:24:53.385Z,19.70
2017-12-31T01:25:58.189Z,19.80
2017-12-31T01:27:02.991Z,19.80
2017-12-31T01:28:07.873Z,19.80
2017-12-31T01:29:12.692Z,19.80
2017-12-31T01:30:18.257Z,19.80
2017-12-31T01:31:23.152Z,19.80
2017-12-31T01:32:27.941Z,19.80
2017-12-31T01:33:32.888Z,19.80
2017-12-31T01:34:37.912Z,19.70
2017-12-31T01:35:42.670Z,19.70
2017-12-31T01:36:47.630Z,19.70
2017-12-31T01:37:52.710Z,19.70
2017-12-31T01:38:57.705Z,19.70
2017-12-31T01:40:03.409Z,19.80
2017-12-31T01:41:08.427Z,19.70
2017-12-31T01:42:13.176Z,19.70
2017-12-31T01:43:18.167Z,19.80
2017-12-31T01:44:23.181Z,19.80
2017-12-31T01:45:28.850Z,19.70
2017-12-31T01:46:33.666Z,19.70
2017-12-31T01:47:38.487Z,19.80
2017-12-31T01:48:43.465Z,19.70
2017-12-31T01:49:48.549Z,19.80
2017-12-31T01:50:53.553Z,19.70
2017-12-31T01:51:58.655Z,19.70
2017-12-31T01:53:03.672Z,19.70
2017-12-31T01:54:09.090Z,19.70
2017-12-31T01:55:14.639Z,19.80
2017-12-31T01:56:19.576Z,19.70
2017-12-31T01:57:25.709Z,19.70
2017-12-31T01:58:30.832Z,19.70
2017-12-31T01:59:35.842Z,19.70
2017-12-31T02:00:40.915Z,19.70
2017-12-31T02:01:45.880Z,19.70
2017-12-31T02:02:50.831Z,19.70
2017-12-31T02:03:55.727Z,19.70
2017-12-31T02:05:00.641Z,19.70
2017-12-31T02:06:05.702Z,19.70
2017-12-31T02:07:10.579Z,19.70
2017-12-31T02:08:15.530Z,19.80
2017-12-31T02:09:20.478Z,19.70
2017-12-31T02:10:25.239Z,19.70
2017-12-31T02:11:30.000Z,19.70
2017-12-31T02:12:34.952Z,19.70
2017-12-31T02:13:39.838Z,19.80
2017-12-31T02:14:44.556Z,19.70
2017-12-31T02:15:50.351Z,19.70
2017-12-31T02:16:55.242Z,19.70
2017-12-31T02:17:59.955Z,19.70
2017-12-31T02:19:04.867Z,19.70
2017-12-31T02:20:09.629Z,19.80
2017-12-31T02:21:14.704Z,19.70
2017-12-31T02:22:19.820Z,19.70
2017-12-31T02:23:24.553Z,19.70
2017-12-31T02:24:29.475Z,19.70
2017-12-31T02:25:34.438Z,19.80
2017-12-31T02:26:39.667Z,19.70
2017-12-31T02:27:44.386Z,19.70
2017-12-31T02:28:49.294Z,19.70
2017-12-31T02:29:54.220Z,19.70
2017-12-31T02:30:58.962Z,19.70
2017-12-31T02:32:03.902Z,19.70
2017-12-31T02:33:08.846Z,19.80
2017-12-31T02:34:14.672Z,19.70
2017-12-31T02:35:19.484Z,19.80
2017-12-31T02:36:24.353Z,19.80
2017-12-31T02:37:29.121Z,19.70
2017-12-31T02:38:33.949Z,19.70
2017-12-31T02:39:38.704Z,19.70
2017-12-31T02:40:43.621Z,19.70
2017-12-31T02:41:48.456Z,19.70
2017-12-31T02:42:53.432Z,19.70
2017-12-31T02:43:58.427Z,19.70
2017-12-31T02:45:03.207Z,19.70
2017-12-31T02:46:08.014Z,19.70
2017-12-31T02:47:12.966Z,19.70
2017-12-31T02:48:18.501Z,19.70
2017-12-31T02:49:23.365Z,19.70
2017-12-31T02:50:28.080Z,19.80
2017-12-31T02:51:33.106Z,19.80
2017-12-31T02:52:38.885Z,19.80
2017-12-31T02:53:43.705Z,19.70
2017-12-31T02:54:48.830Z,19.80
2017-12-31T02:55:53.571Z,19.70
2017-12-31T02:56:58.690Z,19.80
2017-12-31T02:58:03.709Z,19.70
2017-12-31T02:59:08.615Z,19.80
2017-12-31T03:00:13.545Z,19.70
2017-12-31T03:01:18.470Z,19.70
2017-12-31T03:02:23.436Z,19.70
2017-12-31T03:03:28.426Z,19.80
2017-12-31T03:04:33.654Z,19.80
2017-12-31T03:05:38.510Z,19.70
2017-12-31T03:06:43.495Z,19.80
2017-12-31T03:07:48.224Z,19.70
2017-12-31T03:08:53.233Z,19.70
2017-12-31T03:09:58.273Z,19.80
2017-12-31T03:11:03.678Z,19.80
2017-12-31T03:12:08.657Z,19.70
2017-12-31T03:13:13.617Z,19.70
2017-12-31T03:14:18.650Z,19.70
2017-12-31T03:15:23.648Z,19.70
2017-12-31T03:16:28.624Z,19.70
2017-12-31T03:17:33.628Z,19.70
2017-12-31T03:18:38.395Z,19.70
2017-12-31T03:19:43.266Z,19.70
2017-12-31T03:20:48.314Z,19.70
2017-12-31T03:21:53.493Z,19.70
2017-12-31T03:22:58.568Z,19.70
2017-12-31T03:24:03.418Z,19.70
2017-12-31T03:25:08.491Z,19.70
2017-12-31T03:26:13.523Z,19.70
2017-12-31T03:27:18.445Z,19.70
2017-12-31T03:28:23.299Z,19.70
2017-12-31T03:29:28.517Z,19.80
2017-12-31T03:30:33.632Z,19.70
2017-12-31T03:31:39.048Z,19.70
2017-12-31T03:32:43.769Z,19.80
2017-12-31T03:33:48.616Z,19.70
2017-12-31T03:34:53.712Z,19.80
2017-12-31T03:35:58.622Z,19.70
2017-12-31T03:37:03.379Z,19.80
2017-12-31T03:38:08.323Z,19.80
2017-12-31T03:39:13.322Z,19.80
2017-12-31T03:40:18.325Z,19.70
2017-12-31T03:41:23.040Z,19.70
2017-12-31T03:42:28.018Z,19.70
2017-12-31T03:43:32.798Z,19.80
2017-12-31T03:44:37.679Z,19.70
2017-12-31T03:45:44.527Z,19.80
2017-12-31T03:46:49.493Z,19.70
2017-12-31T03:47:54.355Z,19.70
2017-12-31T03:48:59.294Z,19.70
2017-12-31T03:50:04.127Z,19.80
2017-12-31T03:51:09.096Z,19.70
2017-12-31T03:52:14.085Z,19.70
2017-12-31T03:53:19.003Z,19.70
2017-12-31T03:54:23.773Z,19.70
2017-12-31T03:55:28.546Z,19.70
2017-12-31T03:56:33.449Z,19.70
2017-12-31T03:57:39.005Z,19.70
2017-12-31T03:58:43.813Z,19.70
2017-12-31T03:59:48.771Z,19.70
2017-12-31T04:00:53.786Z,19.70
2017-12-31T04:01:58.779Z,19.70
2017-12-31T04:03:03.574Z,19.80
2017-12-31T04:04:08.500Z,19.70
2017-12-31T04:05:13.367Z,19.70
2017-12-31T04:06:18.220Z,19.70
2017-12-31T04:07:23.115Z,19.70
2017-12-31T04:08:27.980Z,19.70
2017-12-31T04:09:32.776Z,19.70
2017-12-31T04:10:37.552Z,19.70
2017-12-31T04:11:42.495Z,19.70
2017-12-31T04:12:47.279Z,19.70
2017-12-31T04:13:52.175Z,19.70
2017-12-31T04:14:56.917Z,19.70
2017-12-31T04:16:01.712Z,19.70
2017-12-31T04:17:06.603Z,19.70
2017-12-31T04:18:11.542Z,19.70
2017-12-31T04:19:16.286Z,19.70
2017-12-31T04:20:21.181Z,19.70
2017-12-31T04:21:26.053Z,19.70
2017-12-31T04:22:30.968Z,19.70
2017-12-31T04:23:35.845Z,19.70
2017-12-31T04:24:40.879Z,19.70
2017-12-31T04:25:45.791Z,19.70
2017-12-31T04:26:50.681Z,19.70
2017-12-31T04:27:55.621Z,19.70
2017-12-31T04:29:00.580Z,19.70
2017-12-31T04:30:05.580Z,19.70
2017-12-31T04:31:10.507Z,19.70
2017-12-31T04:32:15.310Z,19.70
2017-12-31T04:33:20.186Z,19.70
2017-12-31T04:34:25.666Z,19.70
2017-12-31T04:35:30.545Z,19.70
2017-12-31T04:36:35.398Z,19.70
2017-12-31T04:37:40.374Z,19.70
2017-12-31T04:38:45.681Z,19.70
2017-12-31T04:39:50.649Z,19.70
2017-12-31T04:40:56.023Z,19.70
2017-12-31T04:42:01.560Z,19.70
2017-12-31T04:43:06.349Z,19.70
2017-12-31T04:44:11.346Z,19.70
2017-12-31T04:45:16.656Z,19.70
2017-12-31T04:46:21.572Z,19.70
2017-12-31T04:47:26.577Z,19.70
2017-12-31T04:48:31.412Z,19.70
2017-12-31T04:49:36.233Z,19.70
2017-12-31T04:50:41.116Z,19.70
2017-12-31T04:51:46.055Z,19.70
2017-12-31T04:52:50.911Z,19.70
2017-12-31T04:53:55.662Z,19.70
2017-12-31T04:55:00.553Z,19.70
2017-12-31T04:56:05.566Z,19.70
2017-12-31T04:57:10.462Z,19.70
2017-12-31T04:58:15.295Z,19.70
2017-12-31T04:59:20.244Z,19.80
2017-12-31T05:00:25.258Z,19.70
2017-12-31T05:01:30.052Z,19.70
2017-12-31T05:02:34.993Z,19.70
2017-12-31T05:03:39.916Z,19.70
2017-12-31T05:04:44.831Z,19.70
2017-12-31T05:05:49.554Z,19.70
2017-12-31T05:06:54.463Z,19.70
2017-12-31T05:07:59.176Z,19.70
2017-12-31T05:09:04.103Z,19.70
2017-12-31T05:10:09.063Z,19.70
2017-12-31T05:11:14.069Z,19.70
2017-12-31T05:12:18.794Z,19.70
2017-12-31T05:13:23.705Z,19.70
2017-12-31T05:14:28.462Z,19.70
2017-12-31T05:15:33.458Z,19.70
2017-12-31T05:16:38.484Z,19.70
2017-12-31T05:17:43.462Z,19.70
2017-12-31T05:18:48.178Z,19.70
2017-12-31T05:19:53.393Z,19.70
2017-12-31T05:20:58.155Z,19.70
2017-12-31T05:22:03.096Z,19.70
2017-12-31T05:23:08.035Z,19.70
2017-12-31T05:24:12.914Z,19.70
2017-12-31T05:25:17.816Z,19.70
2017-12-31T05:26:22.699Z,19.70
2017-12-31T05:27:27.661Z,19.70
2017-12-31T05:28:32.505Z,19.70
2017-12-31T05:29:37.536Z,19.70
2017-12-31T05:30:42.517Z,19.70
2017-12-31T05:31:47.441Z,19.70
2017-12-31T05:32:52.399Z,19.70
2017-12-31T05:33:57.266Z,19.70
2017-12-31T05:35:02.245Z,19.70
2017-12-31T05:36:07.049Z,19.70
2017-12-31T05:37:12.777Z,19.70
2017-12-31T05:38:17.742Z,19.70
2017-12-31T05:39:22.775Z,19.70
2017-12-31T05:40:27.736Z,19.70
2017-12-31T05:41:32.590Z,19.70
2017-12-31T05:42:37.489Z,19.70
2017-12-31T05:43:42.379Z,19.70
2017-12-31T05:44:47.317Z,19.70
2017-12-31T05:45:52.247Z,19.70
2017-12-31T05:46:57.281Z,19.70
2017-12-31T05:48:02.320Z,19.70
2017-12-31T05:49:07.130Z,19.70
2017-12-31T05:50:12.065Z,19.70
2017-12-31T05:51:16.999Z,19.70
2017-12-31T05:52:21.938Z,19.70
2017-12-31T05:53:26.715Z,19.70
2017-12-31T05:54:31.670Z,19.70
2017-12-31T05:55:36.604Z,19.70
2017-12-31T05:56:41.435Z,19.70
2017-12-31T05:57:46.182Z,19.70
2017-12-31T05:58:51.030Z,19.70
2017-12-31T05:59:56.031Z,19.70
2017-12-31T06:01:01.001Z,19.70
2017-12-31T06:02:06.017Z,19.70
2017-12-31T06:03:10.845Z,19.70
2017-12-31T06:04:15.836Z,19.70
2017-12-31T06:05:20.771Z,19.70
2017-12-31T06:06:25.514Z,19.70
2017-12-31T06:07:30.262Z,19.70
2017-12-31T06:08:35.169Z,19.70
2017-12-31T06:09:39.919Z,19.70
2017-12-31T06:10:44.947Z,19.70
2017-12-31T06:11:49.822Z,19.70
2017-12-31T06:12:54.772Z,19.70
2017-12-31T06:13:59.652Z,19.70
2017-12-31T06:15:04.531Z,19.70
2017-12-31T06:16:09.314Z,19.70
2017-12-31T06:17:14.108Z,19.70
2017-12-31T06:18:19.109Z,19.80
2017-12-31T06:19:23.922Z,19.70
2017-12-31T06:20:28.729Z,19.70
2017-12-31T06:21:33.594Z,19.70
2017-12-31T06:22:38.367Z,19.70
2017-12-31T06:23:43.373Z,19.70
2017-12-31T06:24:48.661Z,19.70
2017-12-31T06:25:53.453Z,19.70
2017-12-31T06:26:58.537Z,19.70
2017-12-31T06:28:03.272Z,19.70
2017-12-31T06:29:08.321Z,19.70
2017-12-31T06:30:13.238Z,19.70
2017-12-31T06:31:18.660Z,19.70
2017-12-31T06:32:23.760Z,19.70
2017-12-31T06:33:28.744Z,19.70
2017-12-31T06:34:33.716Z,19.70
2017-12-31T06:35:38.603Z,19.70
2017-12-31T06:36:43.668Z,19.70
2017-12-31T06:37:48.491Z,19.70
2017-12-31T06:38:53.408Z,19.70
2017-12-31T06:39:58.496Z,19.70
2017-12-31T06:41:03.530Z,19.70
2017-12-31T06:42:08.466Z,19.70
2017-12-31T06:43:13.181Z,19.70
2017-12-31T06:44:17.927Z,19.70
2017-12-31T06:45:22.721Z,19.70
2017-12-31T06:46:27.583Z,19.70
2017-12-31T06:47:32.332Z,19.70
2017-12-31T06:48:37.105Z,19.70
2017-12-31T06:49:41.896Z,19.70
2017-12-31T06:50:46.670Z,19.70
2017-12-31T06:51:51.629Z,19.70
2017-12-31T06:52:56.561Z,19.70
2017-12-31T06:54:01.508Z,19.70
2017-12-31T06:55:06.535Z,19.70
2017-12-31T06:56:11.433Z,19.70
2017-12-31T06:57:16.235Z,19.70
2017-12-31T06:58:21.067Z,19.70
2017-12-31T06:59:26.066Z,19.80
2017-12-31T07:00:30.883Z,19.70
2017-12-31T07:01:35.709Z,19.70
2017-12-31T07:02:40.628Z,19.70
2017-12-31T07:03:45.740Z,19.70
2017-12-31T07:04:50.562Z,19.70
2017-12-31T07:05:55.553Z,19.70
2017-12-31T07:07:00.278Z,19.70
2017-12-31T07:08:05.201Z,19.70
2017-12-31T07:09:10.149Z,19.70
2017-12-31T07:10:15.328Z,19.70
2017-12-31T07:11:20.229Z,19.70
2017-12-31T07:12:25.188Z,19.70
2017-12-31T07:13:30.095Z,19.70
2017-12-31T07:14:34.911Z,19.70
2017-12-31T07:15:39.897Z,19.70
2017-12-31T07:16:44.819Z,19.70
2017-12-31T07:17:49.939Z,19.70
2017-12-31T07:18:54.825Z,19.70
2017-12-31T07:19:59.594Z,19.70
2017-12-31T07:21:04.474Z,19.60
2017-12-31T07:22:09.396Z,19.50
2017-12-31T07:23:14.325Z,19.50
2017-12-31T07:24:19.333Z,19.40
2017-12-31T07:25:25.595Z,19.40
2017-12-31T07:26:30.604Z,19.30
2017-12-31T07:27:35.496Z,19.30
2017-12-31T07:28:40.442Z,19.30
2017-12-31T07:29:45.249Z,19.20
2017-12-31T07:30:50.126Z,19.20
2017-12-31T07:31:55.080Z,19.20
2017-12-31T07:32:59.805Z,19.20
2017-12-31T07:34:04.789Z,19.10
2017-12-31T07:35:09.537Z,19.10
2017-12-31T07:36:14.461Z,19.10
2017-12-31T07:37:19.426Z,19.10
2017-12-31T07:38:24.337Z,19.10
2017-12-31T07:39:29.220Z,19.10
2017-12-31T07:40:34.122Z,19.20
2017-12-31T07:41:39.660Z,19.20
2017-12-31T07:42:44.734Z,19.20
2017-12-31T07:43:49.665Z,19.30
2017-12-31T07:44:54.620Z,19.30
2017-12-31T07:45:59.557Z,19.30
2017-12-31T07:47:04.394Z,19.30
2017-12-31T07:48:09.548Z,19.30
2017-12-31T07:49:14.709Z,19.40
2017-12-31T07:50:19.687Z,19.40
2017-12-31T07:51:24.659Z,19.40
2017-12-31T07:52:29.576Z,19.40
2017-12-31T07:53:34.605Z,19.40
2017-12-31T07:54:39.667Z,19.40
2017-12-31T07:55:44.505Z,19.40
2017-12-31T07:56:49.558Z,19.50
2017-12-31T07:57:54.613Z,19.50
2017-12-31T07:58:59.503Z,19.50
2017-12-31T08:00:04.488Z,19.50
2017-12-31T08:01:09.363Z,19.50
2017-12-31T08:02:14.340Z,19.50
2017-12-31T08:03:19.177Z,19.50
2017-12-31T08:04:24.191Z,19.60
2017-12-31T08:05:29.214Z,19.60
2017-12-31T08:06:34.075Z,19.60
2017-12-31T08:07:38.848Z,19.60
2017-12-31T08:08:43.799Z,19.60
2017-12-31T08:09:48.662Z,19.60
2017-12-31T08:10:53.643Z,19.60
2017-12-31T08:11:58.465Z,19.60
2017-12-31T08:13:03.418Z,19.60
2017-12-31T08:14:08.333Z,19.60
2017-12-31T08:15:13.243Z,19.60
2017-12-31T08:16:18.174Z,19.60
2017-12-31T08:17:23.058Z,19.70
2017-12-31T08:18:27.821Z,19.70
2017-12-31T08:19:32.652Z,19.70
2017-12-31T08:20:37.653Z,19.70
2017-12-31T08:21:42.747Z,19.70
2017-12-31T08:22:47.522Z,19.70
2017-12-31T08:23:52.546Z,19.70
2017-12-31T08:24:57.487Z,19.70
2017-12-31T08:26:02.362Z,19.70
2017-12-31T08:27:07.373Z,19.70
2017-12-31T08:28:12.298Z,19.70
2017-12-31T08:29:17.309Z,19.80
2017-12-31T08:30:22.371Z,19.70
2017-12-31T08:31:27.323Z,19.80
2017-12-31T08:32:32.375Z,19.80
2017-12-31T08:33:37.422Z,19.80
2017-12-31T08:34:42.441Z,19.70
2017-12-31T08:35:47.289Z,19.80
2017-12-31T08:36:52.229Z,19.80
2017-12-31T08:37:57.234Z,19.80
2017-12-31T08:39:02.207Z,19.80
2017-12-31T08:40:07.104Z,19.80
2017-12-31T08:41:11.928Z,19.90
2017-12-31T08:42:16.771Z,19.80
2017-12-31T08:43:21.702Z,19.80
2017-12-31T08:44:26.575Z,19.90
2017-12-31T08:45:31.391Z,19.90
2017-12-31T08:46:36.415Z,19.80
2017-12-31T08:47:41.461Z,19.90
2017-12-31T08:48:46.684Z,19.90
2017-12-31T08:49:51.655Z,19.80
2017-12-31T08:50:56.566Z,19.90
2017-12-31T08:52:01.487Z,19.90
2017-12-31T08:53:06.430Z,19.90
2017-12-31T08:54:11.338Z,19.90
2017-12-31T08:55:16.187Z,19.90
2017-12-31T08:56:21.301Z,19.90
2017-12-31T08:57:26.210Z,19.90
2017-12-31T08:58:32.237Z,19.90
2017-12-31T08:59:37.072Z,20.00
2017-12-31T09:00:42.040Z,20.00
2017-12-31T09:01:47.065Z,20.00
2017-12-31T09:02:52.079Z,20.00
2017-12-31T09:03:56.920Z,20.00
2017-12-31T09:05:02.361Z,20.00
2017-12-31T09:06:07.365Z,20.10
2017-12-31T09:07:12.163Z,20.10
2017-12-31T09:08:17.166Z,20.10
2017-12-31T09:09:21.996Z,20.10
2017-12-31T09:10:27.422Z,20.10
2017-12-31T09:11:32.541Z,20.10
2017-12-31T09:12:37.821Z,20.10
2017-12-31T09:13:42.622Z,20.10
2017-12-31T09:14:47.585Z,20.10
2017-12-31T09:15:52.447Z,20.10
2017-12-31T09:16:57.360Z,20.10
2017-12-31T09:18:02.180Z,20.10
2017-12-31T09:19:07.183Z,20.10
2017-12-31T09:20:12.294Z,20.10
2017-12-31T09:21:17.379Z,20.10
2017-12-31T09:22:22.271Z,20.10
2017-12-31T09:23:27.310Z,20.10
2017-12-31T09:24:32.397Z,20.10
2017-12-31T09:25:37.408Z,20.10
2017-12-31T09:26:42.432Z,20.10
2017-12-31T09:27:48.203Z,20.10
2017-12-31T09:28:53.069Z,20.10
2017-12-31T09:29:58.030Z,20.10
2017-12-31T09:31:02.883Z,20.10
2017-12-31T09:32:07.748Z,20.10
2017-12-31T09:33:12.942Z,20.10
2017-12-31T09:34:18.511Z,20.10
2017-12-31T09:35:23.539Z,20.10
2017-12-31T09:36:28.534Z,20.10
2017-12-31T09:37:33.567Z,20.10
2017-12-31T09:38:38.448Z,20.10
2017-12-31T09:39:43.425Z,20.10
2017-12-31T09:40:48.260Z,20.10
2017-12-31T09:41:53.314Z,20.10
2017-12-31T09:42:58.282Z,20.10
2017-12-31T09:44:03.318Z,20.10
2017-12-31T09:45:08.439Z,20.10
2017-12-31T09:46:13.386Z,20.10
2017-12-31T09:47:18.299Z,20.10
2017-12-31T09:48:23.359Z,20.10
2017-12-31T09:49:29.284Z,20.10
2017-12-31T09:50:34.983Z,20.10
2017-12-31T09:51:40.082Z,20.10
2017-12-31T09:52:44.999Z,20.10
2017-12-31T09:53:49.971Z,20.10
2017-12-31T09:54:54.980Z,20.10
2017-12-31T09:55:59.900Z,20.00
2017-12-31T09:57:05.089Z,20.10
2017-12-31T09:58:10.579Z,20.00
2017-12-31T09:59:15.622Z,20.10
2017-12-31T10:00:20.600Z,20.10
2017-12-31T10:01:25.585Z,20.00
2017-12-31T10:02:30.622Z,20.00
2017-12-31T10:03:35.650Z,20.00
2017-12-31T10:04:40.757Z,20.00
2017-12-31T10:05:45.518Z,20.00
2017-12-31T10:06:50.314Z,20.00
2017-12-31T10:07:55.189Z,20.00
2017-12-31T10:09:00.239Z,20.00
2017-12-31T10:10:05.339Z,20.00
2017-12-31T10:11:10.174Z,20.00
2017-12-31T10:12:14.964Z,20.00
2017-12-31T10:13:20.168Z,20.00
2017-12-31T10:14:24.933Z,20.00
2017-12-31T10:15:29.937Z,20.00
2017-12-31T10:16:34.947Z,20.00
2017-12-31T10:17:39.804Z,20.00
2017-12-31T10:18:44.698Z,20.10
2017-12-31T10:19:50.047Z,20.10
2017-12-31T10:20:55.378Z,20.10
2017-12-31T10:22:01.039Z,20.00
2017-12-31T10:23:06.488Z,20.10
2017-12-31T10:24:11.834Z,20.10
2017-12-31T10:25:17.211Z,20.10
2017-12-31T10:26:22.823Z,20.10
2017-12-31T10:27:28.425Z,20.10
2017-12-31T10:28:33.977Z,20.10
2017-12-31T10:29:39.757Z,20.00
2017-12-31T10:30:45.207Z,20.10
2017-12-31T10:31:51.104Z,20.10
2017-12-31T10:32:57.359Z,20.10
2017-12-31T10:34:02.912Z,20.10
2017-12-31T10:35:08.374Z,20.10
2017-12-31T10:36:13.909Z,20.10
2017-12-31T10:37:19.519Z,20.10
2017-12-31T10:38:24.986Z,20.10
2017-12-31T10:39:30.341Z,20.10
2017-12-31T10:40:35.876Z,20.10
2017-12-31T10:41:41.784Z,20.10
2017-12-31T10:42:47.690Z,20.10
2017-12-31T10:43:53.238Z,20.10
2017-12-31T10:44:58.159Z,20.00
2017-12-31T10:46:03.267Z,20.10
2017-12-31T10:47:08.235Z,20.10
2017-12-31T10:48:13.823Z,20.10
2017-12-31T10:49:19.208Z,20.10
2017-12-31T10:50:24.916Z,20.10
2017-12-31T10:51:30.492Z,20.10
2017-12-31T10:52:35.537Z,20.10
2017-12-31T10:53:40.375Z,20.10
2017-12-31T10:54:45.191Z,20.10
2017-12-31T10:55:50.082Z,20.10
2017-12-31T10:56:55.049Z,20.10
2017-12-31T10:57:59.881Z,20.10
2017-12-31T10:59:04.790Z,20.10
2017-12-31T11:00:10.529Z,20.10
2017-12-31T11:01:16.142Z,20.10
2017-12-31T11:02:21.950Z,20.10
2017-12-31T11:03:28.058Z,20.10
2017-12-31T11:04:33.796Z,20.10
2017-12-31T11:05:39.756Z,20.20
2017-12-31T11:06:45.215Z,20.10
2017-12-31T11:07:50.764Z,20.20
2017-12-31T11:08:56.114Z,20.20
2017-12-31T11:10:02.009Z,20.20
2017-12-31T11:11:07.683Z,20.20
2017-12-31T11:12:13.192Z,20.20
2017-12-31T11:13:18.458Z,20.20
2017-12-31T11:14:23.828Z,20.20
2017-12-31T11:15:29.337Z,20.20
2017-12-31T11:16:34.398Z,20.20
2017-12-31T11:17:39.441Z,20.20
2017-12-31T11:18:44.693Z,20.20
2017-12-31T11:19:49.488Z,20.20
2017-12-31T11:20:54.522Z,20.20
2017-12-31T11:21:59.548Z,20.10
2017-12-31T11:23:04.526Z,20.10
2017-12-31T11:24:09.577Z,20.10
2017-12-31T11:25:14.502Z,20.10
2017-12-31T11:26:19.347Z,20.00
2017-12-31T11:27:24.241Z,20.00
2017-12-31T11:28:29.269Z,20.00
2017-12-31T11:29:34.262Z,20.00
2017-12-31T11:30:39.306Z,20.00
2017-12-31T11:31:44.394Z,20.00
2017-12-31T11:32:49.671Z,20.00
2017-12-31T11:33:55.367Z,20.00
2017-12-31T11:35:00.755Z,20.00
2017-12-31T11:36:06.198Z,20.00
2017-12-31T11:37:11.210Z,20.10
2017-12-31T11:38:16.735Z,20.00
2017-12-31T11:39:22.422Z,20.10
2017-12-31T11:40:27.389Z,20.00
2017-12-31T11:41:32.194Z,20.10
2017-12-31T11:42:37.303Z,20.10
2017-12-31T11:43:42.332Z,20.10
2017-12-31T11:44:47.121Z,20.00
2017-12-31T11:45:52.191Z,20.10
2017-12-31T11:46:57.313Z,20.10
2017-12-31T11:48:02.742Z,20.10
2017-12-31T11:49:07.913Z,20.00
2017-12-31T11:50:12.945Z,20.10
2017-12-31T11:51:19.474Z,20.00
2017-12-31T11:52:25.254Z,20.10
2017-12-31T11:53:31.406Z,20.00
2017-12-31T11:54:37.165Z,20.00
2017-12-31T11:55:42.733Z,20.00
2017-12-31T11:56:48.204Z,20.10
2017-12-31T11:57:53.790Z,20.00
2017-12-31T11:58:59.659Z,20.10
2017-12-31T12:00:05.399Z,20.10
2017-12-31T12:01:11.423Z,20.10
2017-12-31T12:02:17.649Z,20.10
2017-12-31T12:03:22.790Z,20.10
2017-12-31T12:04:27.843Z,20.10
2017-12-31T12:05:32.858Z,20.10
2017-12-31T12:06:39.313Z,20.10
2017-12-31T12:07:44.309Z,20.10
2017-12-31T12:08:49.202Z,20.10
2017-12-31T12:09:54.266Z,20.10
2017-12-31T12:10:59.336Z,20.10
2017-12-31T12:12:05.664Z,20.10
2017-12-31T12:13:10.466Z,20.10
2017-12-31T12:14:15.335Z,20.10
2017-12-31T12:15:20.588Z,20.10
2017-12-31T12:16:25.439Z,20.10
2017-12-31T12:17:30.434Z,20.10
2017-12-31T12:18:35.370Z,20.10
2017-12-31T12:19:40.192Z,20.10
2017-12-31T12:20:45.242Z,20.10
2017-12-31T12:21:50.264Z,20.10
2017-12-31T12:22:55.338Z,20.10
2017-12-31T12:24:00.429Z,20.10
2017-12-31T12:25:05.749Z,20.10
2017-12-31T12:26:10.632Z,20.10
2017-12-31T12:27:15.589Z,20.10
2017-12-31T12:28:20.492Z,20.10
2017-12-31T12:29:25.362Z,20.10
2017-12-31T12:30:30.233Z,20.10
2017-12-31T12:31:35.160Z,20.10
2017-12-31T12:32:40.115Z,20.10
2017-12-31T12:33:45.017Z,20.10
2017-12-31T12:34:50.061Z,20.10
2017-12-31T12:35:54.920Z,20.10
2017-12-31T12:36:59.864Z,20.10
2017-12-31T12:38:04.909Z,20.10
2017-12-31T12:39:09.947Z,20.10
2017-12-31T12:40:15.059Z,20.10
2017-12-31T12:41:20.123Z,20.10
2017-12-31T12:42:25.120Z,20.10
2017-12-31T12:43:30.407Z,20.10
2017-12-31T12:44:35.331Z,20.10
2017-12-31T12:45:40.383Z,20.10
2017-12-31T12:46:46.711Z,20.10
2017-12-31T12:47:51.588Z,20.10
2017-12-31T12:48:56.545Z,20.10
2017-12-31T12:50:02.162Z,20.10
2017-12-31T12:51:07.209Z,20.20
2017-12-31T12:52:12.351Z,20.10
2017-12-31T12:53:17.192Z,20.10
2017-12-31T12:54:22.166Z,20.10
2017-12-31T12:55:27.088Z,20.20
2017-12-31T12:56:32.009Z,20.20
2017-12-31T12:57:37.093Z,20.20
2017-12-31T12:58:42.006Z,20.20
2017-12-31T12:59:47.576Z,20.20
2017-12-31T13:00:52.603Z,20.20
2017-12-31T13:01:57.613Z,20.20
2017-12-31T13:03:02.538Z,20.20
2017-12-31T13:04:07.650Z,20.20
2017-12-31T13:05:13.129Z,20.20
2017-12-31T13:06:18.311Z,20.20
2017-12-31T13:07:23.190Z,20.20
2017-12-31T13:08:28.260Z,20.20
2017-12-31T13:09:33.242Z,20.20
2017-12-31T13:10:38.332Z,20.20
2017-12-31T13:11:43.868Z,20.20
2017-12-31T13:12:49.109Z,20.10
2017-12-31T13:13:54.089Z,20.20
2017-12-31T13:14:59.131Z,20.20
2017-12-31T13:16:04.085Z,20.20
2017-12-31T13:17:10.055Z,20.20
2017-12-31T13:18:15.113Z,20.10
2017-12-31T13:19:20.240Z,20.20
2017-12-31T13:20:25.196Z,20.10
2017-12-31T13:21:30.148Z,20.20
2017-12-31T13:22:35.223Z,20.20
2017-12-31T13:23:40.078Z,20.20
2017-12-31T13:24:45.030Z,20.20
2017-12-31T13:25:49.875Z,20.20
2017-12-31T13:26:54.905Z,20.20
2017-12-31T13:27:59.934Z,20.20
2017-12-31T13:29:06.161Z,20.20
2017-12-31T13:30:11.157Z,20.20
2017-12-31T13:31:16.475Z,20.20
2017-12-31T13:32:21.463Z,20.20
2017-12-31T13:33:26.372Z,20.20
2017-12-31T13:34:31.370Z,20.20
2017-12-31T13:35:36.524Z,20.20
2017-12-31T13:36:41.621Z,20.20
2017-12-31T13:37:46.677Z,20.20
2017-12-31T13:38:51.688Z,20.20
2017-12-31T13:39:57.072Z,20.20
2017-12-31T13:41:02.132Z,20.20
2017-12-31T13:42:07.249Z,20.20
2017-12-31T13:43:12.403Z,20.20
2017-12-31T13:44:17.654Z,20.20
2017-12-31T13:45:22.695Z,20.20
2017-12-31T13:46:27.652Z,20.20
2017-12-31T13:47:32.924Z,20.20
2017-12-31T13:48:37.877Z,20.20
2017-12-31T13:49:42.715Z,20.20
2017-12-31T13:50:47.508Z,20.30
2017-12-31T13:51:52.465Z,20.30
2017-12-31T13:52:57.393Z,20.30
2017-12-31T13:54:02.241Z,20.30
2017-12-31T13:55:07.076Z,20.30
2017-12-31T13:56:12.052Z,20.30
2017-12-31T13:57:16.917Z,20.30
2017-12-31T13:58:21.725Z,20.30
2017-12-31T13:59:26.757Z,20.20